Time;durP1;ratioP1;P1;durP2;ratioP2;P2;SDS_P1;SDS_P2;PMS_P1;PMS_P2;Temp;Humidity;BMP_temperature;BMP_pressure;BME280_temperature;BME280_humidity;BME280_pressure;Samples;Min_cycle;Max_cycle;Signal;HPM_P1;HPM_P2
2023/01/17 00:02:25;;;;;;;35.97;22.37;;;3.50;99.90;;;;;;5135910;27;20188;-69
2023/01/17 00:10:29;;;;;;;35.00;22.17;;;3.70;99.90;;;;;;5135551;27;20232;-69
2023/01/17 00:13:00;;;;;;;45.97;28.37;;;3.70;99.90;;;;;;5135604;27;20195;-71
2023/01/17 00:15:30;;;;;;;33.20;21.87;;;3.70;99.90;;;;;;5135281;27;20288;-71
2023/01/17 00:18:00;;;;;;;36.53;23.23;;;3.70;99.90;;;;;;5135103;27;20204;-71
2023/01/17 00:26:10;;;;;;;34.67;23.47;;;3.90;99.90;;;;;;5135041;27;20689;-71
2023/01/17 01:33:39;;;;;;;29.33;19.90;;;4.10;99.90;;;;;;5111523;28;20202;-71
2023/01/17 01:36:09;;;;;;;31.43;18.70;;;4.10;99.90;;;;;;5114526;28;20274;-71
2023/01/17 01:38:38;;;;;;;27.00;18.77;;;4.20;99.90;;;;;;5114340;28;20189;-72
2023/01/17 01:41:07;;;;;;;27.40;19.73;;;4.20;99.90;;;;;;5114143;28;20604;-71
2023/01/17 01:43:45;;;;;;;41.63;26.93;;;4.20;99.90;;;;;;5114157;28;20195;-72
2023/01/17 01:46:20;;;;;;;40.00;24.20;;;4.30;99.90;;;;;;5114007;28;20193;-79
2023/01/17 01:48:52;;;;;;;34.20;22.93;;;4.40;99.90;;;;;;5113841;28;20190;-70
2023/01/17 01:51:26;;;;;;;42.20;25.23;;;4.40;99.90;;;;;;5113915;27;20197;-72
2023/01/17 01:54:01;;;;;;;27.30;19.40;;;4.40;99.90;;;;;;5113744;28;20196;-81
2023/01/17 01:56:31;;;;;;;28.53;18.57;;;4.40;99.90;;;;;;5112942;28;20627;-71
2023/01/17 01:59:02;;;;;;;30.80;20.17;;;4.40;99.90;;;;;;5131702;27;20197;-71
2023/01/17 02:01:48;;;;;;;39.33;24.00;;;4.40;99.90;;;;;;5134160;27;20210;-80
2023/01/17 02:04:18;;;;;;;36.13;22.37;;;4.40;99.90;;;;;;5126955;27;20224;-71
2023/01/17 02:06:50;;;;;;;36.67;23.23;;;4.50;99.90;;;;;;5113602;28;20243;-70
2023/01/17 02:09:20;;;;;;;35.17;21.23;;;4.60;99.90;;;;;;5113410;28;20294;-73
2023/01/17 02:11:50;;;;;;;30.53;19.03;;;4.60;99.90;;;;;;5113500;28;20186;-78
2023/01/17 02:14:21;;;;;;;27.83;18.67;;;4.60;99.90;;;;;;5113557;28;20242;-73
2023/01/17 02:17:09;;;;;;;30.87;19.90;;;4.50;99.90;;;;;;5113472;28;20255;-70
2023/01/17 02:20:21;;;;;;;29.13;18.03;;;4.50;99.90;;;;;;5113328;28;20197;-70
2023/01/17 02:23:34;;;;;;;28.97;18.70;;;4.40;99.90;;;;;;5050608;28;20548;-72
2023/01/17 02:26:33;;;;;;;26.47;18.00;;;4.50;99.90;;;;;;4991307;28;20539;-70
2023/01/17 02:29:35;;;;;;;28.47;16.97;;;4.70;99.90;;;;;;4991078;28;20209;-73
2023/01/17 02:32:13;;;;;;;30.03;19.57;;;4.80;99.90;;;;;;4914293;29;20407;-70
2023/01/17 02:34:51;;;;;;;36.10;23.47;;;4.80;99.90;;;;;;4914110;29;20197;-78
2023/01/17 02:37:25;;;;;;;35.63;21.43;;;4.70;99.90;;;;;;4914206;29;20590;-72
2023/01/17 02:39:59;;;;;;;36.83;22.30;;;4.80;99.90;;;;;;4914341;29;20252;-69
2023/01/17 02:42:34;;;;;;;34.10;21.83;;;4.70;99.90;;;;;;4914136;29;20595;-70
2023/01/17 02:45:04;;;;;;;32.10;19.63;;;4.90;99.90;;;;;;4914218;29;20311;-70
2023/01/17 02:47:34;;;;;;;32.97;19.97;;;4.80;99.90;;;;;;4914348;29;20212;-70
2023/01/17 02:50:10;;;;;;;31.73;19.77;;;4.80;99.90;;;;;;4911672;29;20233;-70
2023/01/17 02:52:49;;;;;;;31.93;19.50;;;4.70;99.90;;;;;;4914061;29;20207;-72
2023/01/17 02:55:33;;;;;;;33.67;20.07;;;4.80;99.90;;;;;;4913831;29;20228;-71
2023/01/17 02:58:17;;;;;;;24.77;17.17;;;4.70;99.90;;;;;;4970932;28;20211;-71
2023/01/17 03:00:59;;;;;;;28.13;17.70;;;4.60;99.90;;;;;;4973678;28;20343;-83
2023/01/17 03:03:35;;;;;;;28.57;17.70;;;4.60;99.90;;;;;;5049840;28;20208;-79
2023/01/17 03:06:11;;;;;;;27.73;18.10;;;4.60;99.90;;;;;;5049910;28;20211;-70
2023/01/17 03:08:41;;;;;;;24.30;16.90;;;4.60;99.90;;;;;;5078835;28;20205;-70
2023/01/17 03:11:11;;;;;;;26.63;16.90;;;4.70;99.90;;;;;;5112644;28;20236;-78
2023/01/17 03:13:40;;;;;;;25.63;16.07;;;4.60;99.90;;;;;;5112698;28;20219;-73
2023/01/17 03:16:13;;;;;;;23.13;15.53;;;4.70;99.90;;;;;;5112692;28;20192;-70
2023/01/17 03:18:44;;;;;;;24.80;16.10;;;4.50;99.90;;;;;;5112604;28;20196;-79
2023/01/17 03:21:13;;;;;;;21.43;15.00;;;4.40;99.90;;;;;;5112752;28;20203;-72
2023/01/17 03:23:42;;;;;;;20.90;14.93;;;4.30;99.90;;;;;;5112757;28;20195;-72
2023/01/17 03:26:10;;;;;;;21.17;14.87;;;4.40;99.90;;;;;;5112570;28;20234;-70
2023/01/17 03:28:39;;;;;;;22.63;15.40;;;4.50;99.90;;;;;;5112612;28;20225;-79
2023/01/17 03:31:08;;;;;;;24.23;14.57;;;4.50;99.90;;;;;;5112325;28;20219;-73
2023/01/17 03:33:37;;;;;;;17.53;12.67;;;4.50;99.90;;;;;;5112353;28;20653;-70
2023/01/17 03:36:08;;;;;;;20.70;14.77;;;4.40;99.90;;;;;;5112363;28;20226;-80
2023/01/17 03:38:37;;;;;;;19.03;14.13;;;4.30;99.90;;;;;;5112371;28;20206;-73
2023/01/17 03:41:06;;;;;;;21.73;14.10;;;4.30;99.90;;;;;;5112568;28;20193;-70
2023/01/17 03:43:35;;;;;;;21.43;13.73;;;4.30;99.90;;;;;;5112540;28;20263;-71
2023/01/17 03:46:06;;;;;;;19.37;13.13;;;4.40;99.90;;;;;;5126725;28;20655;-70
2023/01/17 03:48:34;;;;;;;21.00;14.87;;;4.50;99.90;;;;;;5133003;27;20196;-72
2023/01/17 03:51:03;;;;;;;18.30;12.63;;;4.40;99.90;;;;;;5132721;27;20581;-70
2023/01/17 03:53:34;;;;;;;16.30;13.00;;;4.30;99.90;;;;;;5132856;27;20528;-71
2023/01/17 03:56:02;;;;;;;19.30;13.60;;;4.20;99.90;;;;;;5132713;27;20698;-71
2023/01/17 03:58:32;;;;;;;18.33;13.27;;;4.20;99.90;;;;;;5132792;27;20198;-71
2023/01/17 04:01:01;;;;;;;18.40;14.80;;;4.10;99.90;;;;;;5132689;27;20199;-70
2023/01/17 04:03:30;;;;;;;20.73;13.10;;;4.20;99.90;;;;;;5132821;27;20624;-70
2023/01/17 04:05:59;;;;;;;17.40;12.17;;;4.40;99.90;;;;;;5132698;27;20185;-70
2023/01/17 04:08:28;;;;;;;18.87;12.53;;;4.40;99.90;;;;;;5132669;27;20201;-70
2023/01/17 04:10:58;;;;;;;19.67;13.30;;;4.20;99.90;;;;;;5132601;27;20220;-71
2023/01/17 04:13:27;;;;;;;17.90;13.00;;;4.20;99.90;;;;;;5132371;28;20580;-72
2023/01/17 04:15:56;;;;;;;18.40;12.60;;;4.20;99.90;;;;;;5132621;28;20745;-71
2023/01/17 04:18:26;;;;;;;18.77;13.43;;;4.20;99.90;;;;;;5132636;27;20192;-72
2023/01/17 04:20:55;;;;;;;15.77;11.37;;;4.40;99.90;;;;;;5136174;27;20199;-70
2023/01/17 04:23:23;;;;;;;15.20;11.60;;;4.40;99.90;;;;;;5136257;27;20257;-70
2023/01/17 04:25:52;;;;;;;16.20;12.43;;;4.40;99.90;;;;;;5136052;27;20216;-70
2023/01/17 04:28:22;;;;;;;15.10;11.53;;;4.40;99.90;;;;;;5136104;27;20194;-70
2023/01/17 04:30:51;;;;;;;15.77;11.70;;;4.40;99.90;;;;;;5136259;27;20354;-70
2023/01/17 04:33:20;;;;;;;16.97;12.20;;;4.30;99.90;;;;;;5135903;27;20779;-72
2023/01/17 04:35:49;;;;;;;16.87;11.53;;;4.30;99.90;;;;;;5135742;27;20195;-71
2023/01/17 04:38:18;;;;;;;12.93;10.37;;;4.40;99.90;;;;;;5135870;27;20632;-70
2023/01/17 04:40:47;;;;;;;16.20;11.50;;;4.30;99.90;;;;;;5135810;27;20713;-70
2023/01/17 04:43:16;;;;;;;14.43;12.10;;;4.40;99.90;;;;;;5135758;27;20193;-70
2023/01/17 04:45:46;;;;;;;22.37;15.57;;;4.30;99.90;;;;;;5135751;27;20198;-71
2023/01/17 04:48:15;;;;;;;21.33;14.17;;;4.40;99.90;;;;;;5135727;27;20194;-71
2023/01/17 04:50:44;;;;;;;31.17;19.73;;;4.40;99.90;;;;;;5135496;27;20251;-71
2023/01/17 04:53:13;;;;;;;18.00;13.73;;;4.50;99.90;;;;;;5135407;27;20293;-70
2023/01/17 04:55:44;;;;;;;24.10;15.43;;;4.40;99.90;;;;;;5135377;27;20772;-70
2023/01/17 04:58:13;;;;;;;16.13;11.93;;;4.50;99.90;;;;;;5135600;27;20223;-70
2023/01/17 05:00:42;;;;;;;17.70;13.50;;;4.40;99.90;;;;;;5135531;27;20194;-70
2023/01/17 05:03:13;;;;;;;19.97;15.47;;;4.30;99.90;;;;;;5135401;27;20201;-70
2023/01/17 05:05:44;;;;;;;17.47;13.90;;;4.40;99.90;;;;;;5134978;27;20219;-71
2023/01/17 05:08:13;;;;;;;28.67;18.20;;;4.50;99.90;;;;;;5135343;27;20229;-70
2023/01/17 05:10:41;;;;;;;25.33;17.03;;;4.40;99.90;;;;;;5135287;27;20202;-75
2023/01/17 05:13:10;;;;;;;14.93;11.87;;;4.40;99.90;;;;;;5135245;27;20201;-69
2023/01/17 05:15:39;;;;;;;27.63;18.50;;;4.60;99.90;;;;;;5134977;27;20679;-72
2023/01/17 05:18:14;;;;;;;16.20;13.20;;;4.60;99.90;;;;;;5135059;27;20197;-70
2023/01/17 05:20:43;;;;;;;13.93;10.60;;;4.60;99.90;;;;;;5134919;27;20259;-71
2023/01/17 05:23:12;;;;;;;15.17;10.63;;;4.50;99.90;;;;;;5134999;27;20284;-71
2023/01/17 05:25:42;;;;;;;13.43;11.63;;;4.50;99.90;;;;;;5134490;27;20254;-72
2023/01/17 05:28:13;;;;;;;13.00;10.70;;;4.60;99.90;;;;;;5133926;27;20661;-70
2023/01/17 05:30:42;;;;;;;12.07;10.53;;;4.60;99.90;;;;;;5128477;27;20273;-78
2023/01/17 05:33:11;;;;;;;18.53;14.00;;;4.60;99.90;;;;;;5117976;27;20296;-70
2023/01/17 05:35:41;;;;;;;47.07;29.77;;;4.50;99.90;;;;;;5113189;28;20225;-69
2023/01/17 05:38:11;;;;;;;18.40;14.27;;;4.60;99.90;;;;;;5113765;28;20242;-74
2023/01/17 05:40:39;;;;;;;18.90;13.83;;;4.50;99.90;;;;;;5113977;28;20194;-71
2023/01/17 05:43:09;;;;;;;17.90;13.67;;;4.40;99.90;;;;;;5113820;28;20197;-73
2023/01/17 05:45:38;;;;;;;20.87;15.50;;;4.40;99.90;;;;;;5113897;28;20206;-74
2023/01/17 05:48:07;;;;;;;15.30;12.53;;;4.50;99.90;;;;;;5113830;28;20248;-72
2023/01/17 05:50:37;;;;;;;13.47;10.90;;;4.60;99.90;;;;;;5113704;28;20192;-73
2023/01/17 05:53:10;;;;;;;17.50;11.67;;;4.40;99.90;;;;;;5113597;28;20590;-72
2023/01/17 05:55:40;;;;;;;17.00;11.93;;;4.40;99.90;;;;;;5113458;28;20239;-72
2023/01/17 05:58:14;;;;;;;15.93;12.17;;;4.40;99.90;;;;;;5113521;28;20186;-72
2023/01/17 06:00:44;;;;;;;19.73;12.97;;;4.50;99.90;;;;;;5113609;28;20229;-75
2023/01/17 06:03:13;;;;;;;18.47;11.67;;;4.40;99.90;;;;;;5113570;28;20202;-75
2023/01/17 06:05:43;;;;;;;16.40;12.57;;;4.30;99.90;;;;;;5113278;28;20663;-71
2023/01/17 06:08:14;;;;;;;15.20;12.37;;;4.20;99.90;;;;;;5113412;28;20655;-73
2023/01/17 06:10:43;;;;;;;17.20;12.20;;;4.20;99.90;;;;;;5113292;28;20279;-72
2023/01/17 06:13:19;;;;;;;17.67;12.77;;;4.40;99.90;;;;;;5113326;28;20225;-72
2023/01/17 06:15:48;;;;;;;16.37;12.60;;;4.40;99.90;;;;;;5113378;28;20246;-71
2023/01/17 06:18:18;;;;;;;16.73;11.50;;;4.30;99.90;;;;;;5113277;28;20207;-74
2023/01/17 06:20:53;;;;;;;17.10;12.97;;;4.30;99.90;;;;;;5113207;28;20205;-75
2023/01/17 06:23:24;;;;;;;17.33;12.63;;;4.30;99.90;;;;;;5113162;28;20567;-71
2023/01/17 06:25:53;;;;;;;17.80;14.23;;;4.40;99.90;;;;;;5113108;28;20304;-74
2023/01/17 06:28:23;;;;;;;19.13;13.17;;;4.40;99.90;;;;;;5113147;28;20224;-73
2023/01/17 06:30:52;;;;;;;18.10;13.47;;;4.50;99.90;;;;;;5113075;28;20193;-73
2023/01/17 06:33:21;;;;;;;19.63;13.97;;;4.60;99.90;;;;;;5113104;28;20578;-72
2023/01/17 06:35:50;;;;;;;16.80;13.10;;;4.60;99.90;;;;;;5113116;28;20204;-72
2023/01/17 06:38:19;;;;;;;18.60;12.80;;;4.40;99.90;;;;;;5112904;28;20535;-71
2023/01/17 06:40:49;;;;;;;17.40;13.37;;;4.30;99.90;;;;;;5113083;28;20206;-72
2023/01/17 06:43:18;;;;;;;20.60;13.63;;;4.40;99.90;;;;;;5112430;28;20210;-73
2023/01/17 06:45:47;;;;;;;22.47;15.30;;;4.40;99.90;;;;;;5112928;28;20200;-71
2023/01/17 06:48:18;;;;;;;19.17;13.90;;;4.40;99.90;;;;;;5112811;28;20205;-72
2023/01/17 06:50:48;;;;;;;20.53;14.47;;;4.40;99.90;;;;;;5112708;28;20633;-74
2023/01/17 06:53:17;;;;;;;17.80;13.23;;;4.30;99.90;;;;;;5112911;28;20231;-73
2023/01/17 06:55:46;;;;;;;17.73;12.87;;;4.40;99.90;;;;;;5112656;28;20276;-72
2023/01/17 06:58:16;;;;;;;17.27;12.27;;;4.50;99.90;;;;;;5112829;28;20184;-73
2023/01/17 07:00:45;;;;;;;14.57;11.87;;;4.60;99.90;;;;;;5112570;28;20671;-71
2023/01/17 07:03:19;;;;;;;16.17;12.70;;;4.70;99.90;;;;;;5112634;28;20263;-74
2023/01/17 07:05:49;;;;;;;14.47;12.17;;;4.60;99.90;;;;;;5112677;28;20693;-72
2023/01/17 07:08:19;;;;;;;13.63;12.20;;;4.60;99.90;;;;;;5112620;28;20624;-72
2023/01/17 07:10:48;;;;;;;14.40;11.33;;;4.70;99.90;;;;;;5112602;28;20270;-72
2023/01/17 07:13:19;;;;;;;17.90;11.97;;;4.70;99.90;;;;;;5112611;28;20230;-72
2023/01/17 07:15:48;;;;;;;15.50;11.77;;;4.60;99.90;;;;;;5112451;28;20200;-74
2023/01/17 07:18:19;;;;;;;15.97;12.00;;;4.60;99.90;;;;;;5112554;28;20206;-70
2023/01/17 07:20:48;;;;;;;16.77;12.63;;;4.50;99.90;;;;;;5112476;28;20198;-73
2023/01/17 07:23:17;;;;;;;16.30;12.97;;;4.50;99.90;;;;;;5112503;28;20198;-73
2023/01/17 07:25:52;;;;;;;18.43;12.73;;;4.50;99.90;;;;;;5112395;28;20204;-73
2023/01/17 07:28:22;;;;;;;15.43;11.90;;;4.50;99.90;;;;;;5112424;28;20880;-72
2023/01/17 07:30:52;;;;;;;16.53;13.57;;;4.50;99.90;;;;;;5112355;28;20203;-71
2023/01/17 07:33:21;;;;;;;15.97;14.17;;;4.60;99.90;;;;;;5112480;28;20249;-72
2023/01/17 07:35:50;;;;;;;20.27;14.00;;;4.60;99.90;;;;;;5112280;28;20209;-71
2023/01/17 07:38:20;;;;;;;18.23;14.00;;;4.60;99.90;;;;;;5112427;28;20659;-79
2023/01/17 07:40:48;;;;;;;18.37;14.37;;;4.50;99.90;;;;;;5112416;28;20694;-72
2023/01/17 07:43:17;;;;;;;21.93;15.50;;;4.70;99.90;;;;;;5112307;28;20254;-73
2023/01/17 07:45:50;;;;;;;20.40;14.93;;;4.80;99.90;;;;;;5112345;28;20186;-71
2023/01/17 07:48:20;;;;;;;19.97;15.00;;;4.70;99.90;;;;;;5112140;28;20676;-72
2023/01/17 07:50:53;;;;;;;25.47;15.33;;;4.60;99.90;;;;;;5112136;28;20194;-71
2023/01/17 07:53:23;;;;;;;21.97;15.87;;;4.70;99.90;;;;;;5112131;28;20224;-71
2023/01/17 07:55:52;;;;;;;22.13;17.10;;;4.70;99.90;;;;;;5115996;28;20228;-73
2023/01/17 07:58:21;;;;;;;21.97;16.63;;;4.70;99.90;;;;;;5116314;28;20201;-72
2023/01/17 08:00:53;;;;;;;22.13;17.13;;;4.70;99.90;;;;;;5116065;28;20389;-72
2023/01/17 08:03:22;;;;;;;24.17;16.40;;;4.70;99.90;;;;;;5115959;28;20672;-71
2023/01/17 08:05:56;;;;;;;33.87;25.07;;;4.80;99.90;;;;;;5116060;28;20194;-71
2023/01/17 08:08:25;;;;;;;25.23;18.27;;;4.70;99.90;;;;;;5115819;28;20221;-70
2023/01/17 08:10:54;;;;;;;28.13;19.27;;;4.70;99.90;;;;;;5115794;28;20195;-72
2023/01/17 08:13:23;;;;;;;185.53;94.57;;;4.50;99.90;;;;;;5115757;28;20220;-73
2023/01/17 08:15:53;;;;;;;40.03;28.03;;;4.60;99.90;;;;;;5115827;28;20667;-71
2023/01/17 08:18:23;;;;;;;38.67;25.27;;;4.70;99.90;;;;;;5115765;28;20212;-71
2023/01/17 08:20:51;;;;;;;65.03;38.07;;;4.80;99.90;;;;;;5115636;28;20300;-73
2023/01/17 08:23:20;;;;;;;32.03;21.43;;;5.00;99.90;;;;;;5115546;28;20210;-72
2023/01/17 08:25:49;;;;;;;25.87;18.10;;;4.90;99.90;;;;;;5115729;28;20222;-71
2023/01/17 08:28:19;;;;;;;33.67;22.03;;;4.80;99.90;;;;;;5115622;28;20200;-71
2023/01/17 08:30:48;;;;;;;32.53;20.90;;;4.90;99.90;;;;;;5115460;28;20223;-73
2023/01/17 08:33:18;;;;;;;31.10;20.83;;;5.00;99.90;;;;;;5115296;28;20217;-71
2023/01/17 08:35:53;;;;;;;33.57;21.47;;;5.00;99.90;;;;;;5115377;28;20196;-71
2023/01/17 08:38:23;;;;;;;40.93;24.83;;;5.00;99.90;;;;;;5115406;28;20477;-71
2023/01/17 08:40:52;;;;;;;37.33;21.77;;;5.00;99.90;;;;;;5115369;28;20194;-73
2023/01/17 08:43:21;;;;;;;35.60;21.03;;;5.10;99.90;;;;;;5113872;28;20567;-71
2023/01/17 08:45:54;;;;;;;31.10;21.90;;;5.30;99.90;;;;;;5115299;28;20212;-71
2023/01/17 08:48:25;;;;;;;29.77;20.97;;;5.20;99.90;;;;;;5115205;28;20684;-71
2023/01/17 08:50:54;;;;;;;31.67;21.53;;;5.30;99.90;;;;;;5114974;28;21004;-71
2023/01/17 08:53:23;;;;;;;30.83;20.53;;;5.20;99.90;;;;;;5114931;28;20270;-74
2023/01/17 08:55:58;;;;;;;34.07;22.60;;;5.30;99.90;;;;;;5114821;28;20231;-71
2023/01/17 08:58:28;;;;;;;30.20;19.80;;;5.20;99.90;;;;;;5114954;28;20206;-71
2023/01/17 09:01:01;;;;;;;31.43;21.43;;;5.10;99.90;;;;;;5115224;28;20206;-71
2023/01/17 09:03:32;;;;;;;30.20;21.40;;;5.30;99.90;;;;;;5114939;28;20251;-71
2023/01/17 09:06:03;;;;;;;35.90;22.87;;;5.40;99.90;;;;;;5114209;28;20216;-71
2023/01/17 09:08:32;;;;;;;37.67;24.03;;;5.30;99.90;;;;;;5114724;28;20228;-70
2023/01/17 09:11:03;;;;;;;37.47;22.33;;;5.30;99.90;;;;;;5114767;28;20637;-70
2023/01/17 09:13:32;;;;;;;36.20;22.27;;;5.40;99.90;;;;;;5114514;28;20215;-70
2023/01/17 09:16:01;;;;;;;38.37;21.47;;;5.40;99.90;;;;;;5114493;28;20537;-70
2023/01/17 09:18:32;;;;;;;33.13;21.93;;;5.50;99.90;;;;;;5114470;28;20202;-71
2023/01/17 09:21:10;;;;;;;33.80;21.83;;;5.60;99.90;;;;;;5114498;28;20206;-71
2023/01/17 09:23:39;;;;;;;31.03;20.43;;;5.50;99.90;;;;;;5114430;28;20201;-71
2023/01/17 09:26:14;;;;;;;29.43;19.70;;;5.40;99.90;;;;;;5114326;28;20201;-72
2023/01/17 09:28:43;;;;;;;28.33;19.27;;;5.50;99.90;;;;;;5114333;28;20194;-71
2023/01/17 09:31:12;;;;;;;31.53;19.13;;;5.40;99.90;;;;;;5114246;28;20676;-70
2023/01/17 09:33:44;;;;;;;34.27;20.80;;;5.50;99.90;;;;;;5114234;28;20651;-70
2023/01/17 09:36:13;;;;;;;34.93;20.40;;;5.60;99.90;;;;;;5114002;28;20204;-71
2023/01/17 09:38:42;;;;;;;29.60;19.87;;;5.60;99.90;;;;;;5114236;28;20630;-71
2023/01/17 09:41:22;;;;;;;27.40;19.67;;;5.70;99.90;;;;;;5114147;28;20284;-73
2023/01/17 09:43:55;;;;;;;52.87;30.77;;;5.60;99.90;;;;;;5114123;28;20207;-70
2023/01/17 09:46:28;;;;;;;29.40;19.57;;;5.70;99.90;;;;;;5114046;28;20245;-71
2023/01/17 09:49:06;;;;;;;28.83;21.10;;;5.60;99.90;;;;;;5114069;28;20208;-71
2023/01/17 09:51:36;;;;;;;31.93;19.93;;;5.50;99.90;;;;;;5113853;28;20199;-71
2023/01/17 09:54:05;;;;;;;34.00;23.27;;;5.40;99.90;;;;;;5113821;28;20249;-73
2023/01/17 09:56:40;;;;;;;26.33;18.27;;;5.50;99.90;;;;;;5113889;28;20714;-71
2023/01/17 09:59:23;;;;;;;24.27;18.27;;;5.60;99.90;;;;;;5113834;28;20190;-70
2023/01/17 10:02:11;;;;;;;23.73;17.60;;;5.60;99.90;;;;;;5113782;28;20191;-70
2023/01/17 10:04:55;;;;;;;25.73;19.50;;;5.50;99.90;;;;;;5113532;28;20728;-73
2023/01/17 10:07:39;;;;;;;25.10;17.43;;;5.40;99.90;;;;;;5113513;28;20333;-71
2023/01/17 10:10:20;;;;;;;25.63;17.97;;;5.50;99.90;;;;;;5113678;28;20200;-73
2023/01/17 10:12:56;;;;;;;28.37;19.80;;;5.50;99.90;;;;;;5113534;28;20186;-71
2023/01/17 10:16:05;;;;;;;25.20;19.23;;;5.50;99.90;;;;;;5113387;28;20222;-71
2023/01/17 10:19:03;;;;;;;25.40;18.03;;;5.50;99.90;;;;;;5050292;28;20207;-73
2023/01/17 10:21:45;;;;;;;29.10;20.03;;;5.40;99.90;;;;;;5050474;28;20202;-72
2023/01/17 10:24:36;;;;;;;28.60;21.20;;;5.50;99.90;;;;;;5050574;28;20204;-69
2023/01/17 10:27:19;;;;;;;26.97;19.63;;;5.60;99.90;;;;;;5038725;28;20672;-71
2023/01/17 10:29:49;;;;;;;29.67;18.77;;;5.70;99.90;;;;;;5050256;28;20208;-72
2023/01/17 10:32:22;;;;;;;31.43;20.13;;;5.60;99.90;;;;;;5050307;28;20769;-70
2023/01/17 10:34:52;;;;;;;25.87;18.10;;;5.60;99.90;;;;;;5050200;28;20249;-71
2023/01/17 10:37:33;;;;;;;27.93;21.27;;;5.60;99.90;;;;;;5050095;28;20307;-71
2023/01/17 10:40:14;;;;;;;23.50;17.40;;;5.50;99.90;;;;;;5050248;28;20194;-72
2023/01/17 10:42:49;;;;;;;27.27;18.97;;;5.50;99.90;;;;;;5050132;28;20213;-71
2023/01/17 10:45:24;;;;;;;28.57;19.37;;;5.60;99.90;;;;;;5050114;28;20198;-71
2023/01/17 10:48:02;;;;;;;26.07;18.10;;;5.60;99.90;;;;;;5050118;28;20202;-71
2023/01/17 10:50:40;;;;;;;26.20;18.63;;;5.60;99.90;;;;;;5109841;28;20209;-73
2023/01/17 10:53:15;;;;;;;25.13;19.47;;;5.60;99.90;;;;;;5113003;28;20197;-70
2023/01/17 10:55:52;;;;;;;24.93;18.50;;;5.60;99.90;;;;;;5112561;28;20234;-71
2023/01/17 10:58:21;;;;;;;25.60;18.93;;;5.70;99.90;;;;;;5112800;28;20743;-71
2023/01/17 11:00:57;;;;;;;25.77;19.70;;;5.70;99.90;;;;;;5112539;28;20227;-71
2023/01/17 11:03:27;;;;;;;23.07;19.00;;;5.80;99.90;;;;;;5112594;28;20195;-72
2023/01/17 11:06:23;;;;;;;31.13;20.43;;;5.70;99.90;;;;;;5112470;28;20212;-71
2023/01/17 11:08:56;;;;;;;25.40;19.43;;;5.70;99.90;;;;;;5049976;28;20210;-71
2023/01/17 11:11:29;;;;;;;24.27;18.60;;;5.80;99.90;;;;;;5049623;28;20206;-71
2023/01/17 11:14:00;;;;;;;28.57;20.87;;;5.80;99.90;;;;;;5049796;28;20284;-71
2023/01/17 11:16:31;;;;;;;27.87;21.13;;;5.80;99.90;;;;;;5049745;28;20303;-75
2023/01/17 11:19:14;;;;;;;28.97;21.80;;;5.70;99.90;;;;;;5049848;28;20204;-70
2023/01/17 11:21:52;;;;;;;29.10;21.37;;;5.90;99.90;;;;;;5049567;28;20647;-73
2023/01/17 11:24:30;;;;;;;29.50;20.77;;;6.10;99.90;;;;;;5049714;28;20734;-69
2023/01/17 11:26:59;;;;;;;28.80;19.13;;;6.20;99.90;;;;;;5049676;28;20316;-71
2023/01/17 11:29:33;;;;;;;27.47;20.20;;;6.20;99.90;;;;;;5053190;28;20225;-69
2023/01/17 11:32:29;;;;;;;22.60;17.97;;;6.00;99.90;;;;;;5053553;28;20263;-70
2023/01/17 11:35:20;;;;;;;24.47;17.37;;;6.10;99.90;;;;;;4994105;28;20698;-72
2023/01/17 11:37:59;;;;;;;22.70;16.93;;;6.10;99.90;;;;;;4994238;28;20204;-71
2023/01/17 11:40:32;;;;;;;20.57;16.37;;;6.20;99.90;;;;;;4994278;28;20202;-72
2023/01/17 11:43:04;;;;;;;26.87;17.73;;;6.10;99.90;;;;;;4994236;28;20207;-74
2023/01/17 11:45:35;;;;;;;19.80;15.57;;;6.10;99.90;;;;;;5044207;28;20220;-71
2023/01/17 11:48:16;;;;;;;24.57;17.43;;;6.30;99.90;;;;;;5053533;28;20284;-71
2023/01/17 11:50:47;;;;;;;23.73;15.93;;;6.10;99.90;;;;;;5053417;28;20218;-72
2023/01/17 11:53:21;;;;;;;21.43;15.17;;;6.00;99.90;;;;;;5053224;28;20287;-71
2023/01/17 11:55:58;;;;;;;19.80;16.27;;;6.00;99.90;;;;;;5053046;28;20752;-71
2023/01/17 11:58:28;;;;;;;22.70;15.50;;;6.00;99.90;;;;;;5053158;28;20710;-77
2023/01/17 12:01:12;;;;;;;19.67;14.60;;;5.90;99.90;;;;;;5053162;28;20197;-70
2023/01/17 12:04:06;;;;;;;19.23;13.63;;;5.80;99.90;;;;;;5053180;28;20268;-76
2023/01/17 12:06:48;;;;;;;18.23;13.97;;;5.90;99.90;;;;;;5052865;28;20622;-73
2023/01/17 12:09:35;;;;;;;19.73;14.67;;;6.00;99.90;;;;;;5053022;28;20202;-71
2023/01/17 12:15:13;;;;;;;20.47;12.57;;;6.00;99.90;;;;;;5115707;28;20227;-70
2023/01/17 12:18:07;;;;;;;19.90;13.93;;;6.10;99.90;;;;;;5115723;28;20251;-70
2023/01/17 12:20:43;;;;;;;15.67;12.23;;;6.20;99.90;;;;;;5115567;28;20192;-70
2023/01/17 12:23:34;;;;;;;17.00;12.13;;;6.20;99.90;;;;;;5115653;28;20223;-70
2023/01/17 12:26:19;;;;;;;17.97;13.20;;;6.10;99.90;;;;;;5115624;28;20203;-73
2023/01/17 12:29:21;;;;;;;14.13;11.90;;;6.00;99.90;;;;;;5115380;28;20196;-75
2023/01/17 12:32:01;;;;;;;14.77;11.47;;;6.10;99.90;;;;;;5072456;28;20215;-70
2023/01/17 12:34:37;;;;;;;16.47;12.53;;;6.30;99.90;;;;;;5072357;28;20211;-72
2023/01/17 12:37:15;;;;;;;20.87;12.73;;;6.10;99.90;;;;;;5072284;28;20232;-70
2023/01/17 12:39:49;;;;;;;15.17;11.43;;;6.00;99.90;;;;;;5071778;28;20243;-71
2023/01/17 12:42:21;;;;;;;14.70;11.63;;;6.00;99.90;;;;;;5072271;28;20690;-73
2023/01/17 12:44:57;;;;;;;16.50;12.40;;;5.80;99.90;;;;;;5072424;28;20208;-70
2023/01/17 12:47:29;;;;;;;15.43;10.97;;;5.80;99.90;;;;;;5072288;28;20280;-72
2023/01/17 12:50:06;;;;;;;13.20;10.80;;;6.00;99.90;;;;;;5072188;28;20208;-70
2023/01/17 12:52:46;;;;;;;13.37;11.27;;;6.00;99.90;;;;;;5072182;28;20205;-73
2023/01/17 12:55:19;;;;;;;15.40;10.90;;;5.80;99.90;;;;;;5071905;28;20240;-70
2023/01/17 12:57:56;;;;;;;13.73;11.23;;;5.90;99.90;;;;;;5072142;28;20197;-77
2023/01/17 13:00:28;;;;;;;15.47;10.50;;;6.10;99.90;;;;;;5072112;28;20200;-71
2023/01/17 13:03:07;;;;;;;13.40;10.63;;;5.80;99.90;;;;;;5072056;28;20197;-74
2023/01/17 13:05:39;;;;;;;13.93;10.73;;;5.80;99.90;;;;;;5071833;28;20207;-71
2023/01/17 13:08:19;;;;;;;16.10;11.23;;;5.70;99.90;;;;;;5074515;28;20686;-73
2023/01/17 13:10:53;;;;;;;16.27;11.97;;;5.90;99.90;;;;;;5114668;28;20564;-78
2023/01/17 13:13:24;;;;;;;13.97;11.03;;;5.90;99.90;;;;;;5114726;28;20204;-70
2023/01/17 13:15:57;;;;;;;16.00;10.93;;;6.00;99.90;;;;;;5114540;28;20595;-71
2023/01/17 13:18:32;;;;;;;14.03;11.47;;;5.90;99.90;;;;;;5114509;28;20659;-72
2023/01/17 13:21:25;;;;;;;13.57;10.87;;;5.80;99.90;;;;;;5114509;28;20202;-77
2023/01/17 13:24:15;;;;;;;14.47;11.27;;;5.80;99.90;;;;;;5114500;28;20209;-71
2023/01/17 13:27:00;;;;;;;15.13;11.93;;;6.00;99.90;;;;;;5104908;28;20211;-71
2023/01/17 13:29:36;;;;;;;17.13;12.23;;;6.10;99.90;;;;;;5114325;28;20192;-72
2023/01/17 13:32:17;;;;;;;13.27;10.63;;;6.10;99.90;;;;;;5114190;28;20185;-73
2023/01/17 13:35:13;;;;;;;13.57;10.57;;;6.00;99.90;;;;;;5114120;28;20199;-70
2023/01/17 13:38:13;;;;;;;15.50;11.07;;;5.90;99.90;;;;;;5114127;28;20219;-72
2023/01/17 13:40:50;;;;;;;19.87;11.07;;;5.80;99.90;;;;;;5114286;27;20188;-70
2023/01/17 13:43:24;;;;;;;17.37;11.13;;;5.80;99.90;;;;;;5114203;28;20203;-73
2023/01/17 13:45:55;;;;;;;15.00;10.50;;;5.80;99.90;;;;;;5114091;28;20192;-70
2023/01/17 13:48:27;;;;;;;13.67;10.53;;;5.80;99.90;;;;;;5114049;28;20199;-76
2023/01/17 13:50:59;;;;;;;12.87;10.27;;;5.80;99.90;;;;;;5113853;28;20200;-72
2023/01/17 13:53:59;;;;;;;12.97;9.93;;;5.80;99.90;;;;;;5113799;28;20200;-71
2023/01/17 13:56:36;;;;;;;11.60;9.23;;;5.70;99.90;;;;;;5113729;28;20216;-74
2023/01/17 13:59:26;;;;;;;13.07;10.07;;;5.80;99.90;;;;;;5113660;28;20201;-72
2023/01/17 14:01:55;;;;;;;13.47;9.67;;;5.70;99.90;;;;;;5113610;28;20308;-70
2023/01/17 14:04:25;;;;;;;14.70;11.03;;;5.70;99.90;;;;;;5113767;28;20265;-71
2023/01/17 14:07:02;;;;;;;13.23;10.73;;;5.80;99.90;;;;;;5113644;28;20592;-72
2023/01/17 14:09:41;;;;;;;18.67;12.20;;;5.80;99.90;;;;;;5113618;28;20191;-70
2023/01/17 14:12:32;;;;;;;13.03;11.00;;;5.90;99.90;;;;;;5113593;28;20286;-70
2023/01/17 14:15:04;;;;;;;11.83;9.67;;;5.80;99.90;;;;;;5113511;28;20202;-70
2023/01/17 14:17:57;;;;;;;12.37;10.00;;;5.70;99.90;;;;;;5113390;28;20589;-70
2023/01/17 14:20:52;;;;;;;14.70;11.37;;;5.60;99.90;;;;;;5112003;28;20547;-73
2023/01/17 14:23:53;;;;;;;35.37;21.77;;;5.80;99.90;;;;;;5113236;28;20207;-71
2023/01/17 14:26:41;;;;;;;12.57;9.80;;;5.90;99.90;;;;;;5113250;28;20191;-72
2023/01/17 14:29:47;;;;;;;13.53;8.60;;;5.80;99.90;;;;;;5113143;28;20202;-71
2023/01/17 14:32:19;;;;;;;13.27;9.03;;;5.80;99.90;;;;;;5113082;28;20198;-70
2023/01/17 14:34:51;;;;;;;12.87;9.43;;;5.80;99.90;;;;;;5112939;28;20202;-71